createdAt,value
2023-05-14T00:04:42.009Z,2.55
2023-05-14T00:09:44.889Z,2.14
2023-05-14T00:14:47.944Z,1.57
2023-05-14T00:19:50.712Z,1.18
2023-05-14T00:24:53.616Z,1.11
2023-05-14T00:29:56.445Z,1.46
2023-05-14T00:34:59.470Z,1.76
2023-05-14T00:40:02.511Z,1.68
2023-05-14T00:45:07.850Z,1.75
2023-05-14T00:50:11.584Z,1.98
2023-05-14T00:55:16.855Z,2.05
2023-05-14T01:00:20.244Z,2.07
2023-05-14T01:05:25.611Z,2.17
2023-05-14T01:10:29.719Z,2.31
2023-05-14T01:15:34.478Z,2.47
2023-05-14T01:20:37.566Z,2.73
2023-05-14T01:25:40.504Z,2.97
2023-05-14T01:30:54.148Z,3.40
2023-05-14T01:35:57.935Z,3.90
2023-05-14T01:41:01.557Z,4.43
2023-05-14T01:46:05.321Z,5.20
2023-05-14T01:51:08.169Z,5.68
2023-05-14T01:56:11.194Z,5.95
2023-05-14T02:01:14.372Z,6.06
2023-05-14T02:06:17.310Z,6.00
2023-05-14T02:11:20.198Z,6.14
2023-05-14T02:16:23.382Z,6.44
2023-05-14T02:21:27.828Z,6.78
2023-05-14T02:26:30.904Z,6.69
2023-05-14T02:31:33.919Z,6.56
2023-05-14T02:36:36.808Z,6.64
2023-05-14T02:41:40.728Z,6.70
2023-05-14T02:46:44.128Z,6.77
2023-05-14T02:51:47.398Z,6.73
2023-05-14T02:56:50.448Z,6.35
2023-05-14T03:01:53.628Z,6.07
2023-05-14T03:06:57.518Z,5.77
2023-05-14T03:12:00.980Z,5.79
2023-05-14T03:17:04.466Z,6.09
2023-05-14T03:22:07.436Z,6.40
2023-05-14T03:27:10.344Z,6.70
2023-05-14T03:32:13.323Z,6.89
2023-05-14T03:37:16.424Z,7.25
2023-05-14T03:42:19.402Z,7.43
2023-05-14T03:47:22.382Z,7.61
2023-05-14T03:52:25.364Z,7.68
2023-05-14T03:57:29.246Z,7.53
2023-05-14T04:02:32.577Z,7.42
2023-05-14T04:07:35.572Z,7.59
2023-05-14T04:12:38.627Z,7.88
2023-05-14T04:17:42.205Z,7.86
2023-05-14T04:22:45.123Z,7.89
2023-05-14T04:27:48.040Z,7.95
2023-05-14T04:32:50.889Z,7.75
2023-05-14T04:37:53.774Z,7.55
2023-05-14T04:42:56.601Z,7.27
2023-05-14T04:47:59.408Z,7.19
2023-05-14T04:53:02.364Z,7.25
2023-05-14T04:58:05.688Z,7.20
2023-05-14T05:03:09.203Z,7.32
2023-05-14T05:08:12.338Z,7.51
2023-05-14T05:13:17.362Z,7.61
2023-05-14T05:18:20.324Z,7.70
2023-05-14T05:23:23.178Z,7.74
2023-05-14T05:28:25.993Z,7.72
2023-05-14T05:33:29.040Z,7.69
2023-05-14T05:38:31.919Z,7.72
2023-05-14T05:43:34.933Z,7.89
2023-05-14T05:48:38.000Z,8.00
2023-05-14T05:53:41.270Z,8.09
2023-05-14T05:58:45.638Z,8.26
2023-05-14T06:03:53.774Z,8.70
2023-05-14T06:08:56.533Z,9.08
2023-05-14T06:13:59.492Z,9.35
2023-05-14T06:19:02.565Z,9.61
2023-05-14T06:24:05.945Z,9.54
2023-05-14T06:29:08.827Z,9.61
2023-05-14T06:34:12.216Z,9.86
2023-05-14T06:39:15.255Z,10.19
2023-05-14T06:44:19.972Z,10.23
2023-05-14T06:49:22.954Z,10.17
2023-05-14T06:54:25.713Z,10.10
2023-05-14T06:59:28.703Z,10.06
2023-05-14T07:04:31.766Z,10.05
2023-05-14T07:09:34.791Z,9.97
2023-05-14T07:14:38.163Z,10.11
2023-05-14T07:19:41.370Z,10.56
2023-05-14T07:24:44.268Z,10.87
2023-05-14T07:29:47.237Z,11.12
2023-05-14T07:34:50.250Z,11.26
2023-05-14T07:39:54.208Z,11.35
2023-05-14T07:44:57.130Z,11.18
2023-05-14T07:50:00.164Z,11.03
2023-05-14T07:55:04.325Z,11.16
2023-05-14T08:00:08.936Z,11.12
2023-05-14T08:05:18.564Z,11.09
2023-05-14T08:10:21.662Z,11.24
2023-05-14T08:15:26.358Z,11.35
2023-05-14T08:20:31.474Z,11.38
2023-05-14T08:25:34.651Z,11.56
2023-05-14T08:30:37.453Z,11.83
2023-05-14T08:35:40.434Z,12.10
2023-05-14T08:40:43.350Z,12.24
2023-05-14T08:45:47.276Z,12.36
2023-05-14T08:50:50.271Z,12.75
2023-05-14T08:55:54.503Z,13.14
2023-05-14T09:00:57.469Z,13.83
2023-05-14T09:06:00.890Z,14.06
2023-05-14T09:11:03.910Z,14.01
2023-05-14T09:16:07.400Z,14.16
2023-05-14T09:21:10.408Z,14.47
2023-05-14T09:26:19.142Z,14.76
2023-05-14T09:31:22.225Z,14.73
2023-05-14T09:36:27.407Z,14.63
2023-05-14T09:41:30.372Z,14.38
2023-05-14T09:46:33.684Z,14.24
2023-05-14T09:51:38.167Z,14.08
2023-05-14T09:56:41.625Z,14.30
2023-05-14T10:01:44.979Z,14.16
2023-05-14T10:06:49.221Z,13.60
2023-05-14T10:11:54.452Z,13.76
2023-05-14T10:17:00.058Z,13.86
2023-05-14T10:22:08.702Z,14.31
2023-05-14T10:27:11.641Z,14.15
2023-05-14T10:32:16.940Z,14.02
2023-05-14T10:37:21.992Z,13.68
2023-05-14T10:42:29.327Z,13.91
2023-05-14T10:47:32.914Z,13.98
2023-05-14T10:52:36.248Z,13.96
2023-05-14T10:57:41.027Z,14.25
2023-05-14T11:02:45.321Z,14.45
2023-05-14T11:07:50.049Z,14.45
2023-05-14T11:12:53.203Z,14.23
2023-05-14T11:17:56.251Z,14.33
2023-05-14T11:22:59.559Z,13.73
2023-05-14T11:28:02.404Z,13.43
2023-05-14T11:33:05.320Z,13.26
2023-05-14T11:38:09.322Z,13.26
2023-05-14T11:43:18.533Z,13.30
2023-05-14T11:48:22.194Z,13.24
2023-05-14T11:53:30.101Z,13.08
2023-05-14T11:58:34.186Z,12.97
2023-05-14T12:03:37.333Z,12.68
2023-05-14T12:08:40.539Z,12.65
2023-05-14T12:13:43.570Z,12.62
2023-05-14T12:18:46.558Z,12.80
2023-05-14T12:23:58.929Z,13.08
2023-05-14T12:29:03.378Z,13.18
2023-05-14T12:34:06.490Z,13.35
2023-05-14T12:39:10.043Z,13.17
2023-05-14T12:44:12.992Z,12.98
2023-05-14T12:49:15.899Z,12.86
2023-05-14T12:54:18.976Z,12.90
2023-05-14T12:59:23.485Z,13.08
2023-05-14T13:04:26.764Z,13.60
2023-05-14T13:09:29.556Z,14.52
2023-05-14T13:14:32.477Z,14.95
2023-05-14T13:19:35.470Z,17.27
2023-05-14T13:24:39.204Z,16.92
2023-05-14T13:29:42.801Z,14.86
2023-05-14T13:34:46.055Z,13.58
2023-05-14T13:39:50.637Z,12.49
2023-05-14T13:44:54.293Z,11.58
2023-05-14T13:49:57.305Z,11.16
2023-05-14T13:55:00.238Z,10.94
2023-05-14T14:00:03.252Z,10.46
2023-05-14T14:05:09.619Z,9.97
2023-05-14T14:10:13.240Z,10.83
2023-05-14T14:15:16.481Z,10.75
2023-05-14T14:20:19.499Z,9.97
2023-05-14T14:25:22.843Z,9.18
2023-05-14T14:30:26.045Z,8.55
2023-05-14T14:35:29.159Z,8.16
2023-05-14T14:40:34.191Z,7.96
2023-05-14T14:45:37.263Z,7.71
2023-05-14T14:50:40.216Z,7.57
2023-05-14T14:55:43.212Z,7.35
2023-05-14T15:00:46.310Z,7.28
2023-05-14T15:05:49.260Z,7.20
2023-05-14T15:10:52.539Z,7.11
2023-05-14T15:15:55.968Z,7.09
2023-05-14T15:20:58.866Z,7.16
2023-05-14T15:26:01.767Z,7.02
2023-05-14T15:31:04.811Z,7.01
2023-05-14T15:36:08.405Z,6.99
2023-05-14T15:41:11.274Z,6.88
2023-05-14T15:46:14.153Z,6.78
2023-05-14T15:51:17.088Z,6.47
2023-05-14T15:56:20.024Z,6.15
2023-05-14T16:01:22.908Z,6.00
2023-05-14T16:06:26.505Z,5.87
2023-05-14T16:11:30.535Z,5.98
2023-05-14T16:16:33.374Z,5.86
2023-05-14T16:21:36.446Z,5.77
2023-05-14T16:26:40.359Z,5.88
2023-05-14T16:31:44.134Z,5.79
2023-05-14T16:36:47.185Z,5.63
2023-05-14T16:41:50.163Z,5.07
2023-05-14T16:46:53.050Z,4.61
2023-05-14T16:51:55.892Z,4.21
2023-05-14T16:56:58.764Z,3.96
2023-05-14T17:02:01.683Z,3.88
2023-05-14T17:07:05.858Z,3.86
2023-05-14T17:12:10.081Z,3.89
2023-05-14T17:17:12.954Z,3.85
2023-05-14T17:22:15.953Z,3.77
2023-05-14T17:27:18.755Z,3.74
2023-05-14T17:32:21.787Z,3.65
2023-05-14T17:37:25.296Z,3.58
2023-05-14T17:42:28.174Z,3.38
2023-05-14T17:47:31.098Z,3.14
2023-05-14T17:52:33.976Z,2.90
2023-05-14T17:57:37.010Z,2.77
2023-05-14T18:02:40.148Z,2.56
2023-05-14T18:07:43.181Z,2.68
2023-05-14T18:12:46.312Z,2.64
2023-05-14T18:17:49.231Z,2.36
2023-05-14T18:22:52.723Z,2.13
2023-05-14T18:27:56.033Z,2.20
2023-05-14T18:33:00.058Z,2.13
2023-05-14T18:38:03.312Z,2.17
2023-05-14T18:43:06.465Z,2.13
2023-05-14T18:48:10.424Z,2.04
2023-05-14T18:53:13.337Z,2.03
2023-05-14T18:58:18.087Z,1.97
2023-05-14T19:03:21.237Z,1.87
2023-05-14T19:08:24.209Z,1.83
2023-05-14T19:13:28.886Z,1.73
2023-05-14T19:18:31.786Z,1.57
2023-05-14T19:23:34.612Z,1.53
2023-05-14T19:28:40.443Z,1.51
2023-05-14T19:33:43.272Z,1.52
2023-05-14T19:38:46.691Z,1.51
2023-05-14T19:43:49.533Z,1.56
2023-05-14T19:48:52.800Z,1.61
2023-05-14T19:53:55.795Z,1.56
2023-05-14T19:58:58.670Z,1.46
2023-05-14T20:04:01.517Z,1.35
2023-05-14T20:09:06.272Z,1.25
2023-05-14T20:14:09.410Z,1.30
2023-05-14T20:19:12.370Z,1.35
2023-05-14T20:24:15.322Z,1.38
2023-05-14T20:29:18.310Z,1.33
2023-05-14T20:34:21.200Z,1.31
2023-05-14T20:39:24.200Z,1.37
2023-05-14T20:44:27.046Z,1.41
2023-05-14T20:49:30.002Z,1.40
2023-05-14T20:54:32.763Z,1.30
2023-05-14T20:59:35.613Z,1.25
2023-05-14T21:04:39.080Z,1.17
2023-05-14T21:09:42.428Z,1.25
2023-05-14T21:14:45.433Z,1.28
2023-05-14T21:19:48.220Z,1.07
2023-05-14T21:24:51.532Z,1.20
2023-05-14T21:29:54.466Z,1.02
2023-05-14T21:34:57.394Z,0.90
2023-05-14T21:40:00.305Z,1.06
2023-05-14T21:45:03.528Z,1.40
2023-05-14T21:50:08.298Z,1.74
2023-05-14T21:55:11.371Z,2.09
2023-05-14T22:00:18.995Z,2.31
2023-05-14T22:05:22.525Z,2.48
2023-05-14T22:10:25.509Z,2.53
2023-05-14T22:15:28.347Z,2.71
2023-05-14T22:20:31.802Z,2.77
2023-05-14T22:25:34.743Z,2.84
2023-05-14T22:30:37.561Z,2.95
2023-05-14T22:35:40.847Z,3.08
2023-05-14T22:40:43.666Z,3.15
2023-05-14T22:45:46.582Z,3.15
2023-05-14T22:50:49.421Z,3.05
2023-05-14T22:55:52.235Z,2.88
2023-05-14T23:00:55.149Z,2.97
2023-05-14T23:05:57.990Z,3.12
2023-05-14T23:11:00.892Z,3.30
2023-05-14T23:16:04.279Z,3.49
2023-05-14T23:21:07.121Z,3.66
2023-05-14T23:26:09.916Z,3.82
2023-05-14T23:31:12.721Z,3.91
2023-05-14T23:36:15.946Z,4.01
2023-05-14T23:41:19.113Z,4.13
2023-05-14T23:46:22.721Z,4.25
2023-05-14T23:51:27.446Z,4.31
2023-05-14T23:56:30.453Z,4.51
